sensor_id;sensor_type;location;lat;lon;timestamp;pressure;altitude;pressure_sealevel;temperature;humidity
75192;BME280;63771;52.580;9.734;2023-05-27T00:01:17;102610.78;;;9.22;79.22
75192;BME280;63771;52.580;9.734;2023-05-27T00:03:43;102608.81;;;9.20;79.18
75192;BME280;63771;52.580;9.734;2023-05-27T00:06:08;102606.78;;;9.17;79.21
75192;BME280;63771;52.580;9.734;2023-05-27T00:08:33;102614.44;;;9.17;79.17
75192;BME280;63771;52.580;9.734;2023-05-27T00:10:59;102617.34;;;9.13;79.52
75192;BME280;63771;52.580;9.734;2023-05-27T00:13:24;102609.72;;;9.06;79.65
75192;BME280;63771;52.580;9.734;2023-05-27T00:15:49;102610.97;;;9.02;79.84
75192;BME280;63771;52.580;9.734;2023-05-27T00:18:15;102612.09;;;9.04;79.97
75192;BME280;63771;52.580;9.734;2023-05-27T00:20:40;102614.81;;;9.06;80.02
75192;BME280;63771;52.580;9.734;2023-05-27T00:23:06;102607.91;;;9.05;79.66
75192;BME280;63771;52.580;9.734;2023-05-27T00:25:31;102604.25;;;9.03;79.57
75192;BME280;63771;52.580;9.734;2023-05-27T00:27:59;102611.91;;;8.96;79.83
75192;BME280;63771;52.580;9.734;2023-05-27T00:30:24;102612.97;;;8.98;79.55
75192;BME280;63771;52.580;9.734;2023-05-27T00:32:49;102614.81;;;8.99;79.92
75192;BME280;63771;52.580;9.734;2023-05-27T00:35:15;102606.63;;;8.94;80.52
75192;BME280;63771;52.580;9.734;2023-05-27T00:37:41;102610.78;;;8.86;80.16
75192;BME280;63771;52.580;9.734;2023-05-27T00:40:09;102604.25;;;8.81;80.72
75192;BME280;63771;52.580;9.734;2023-05-27T00:42:35;102600.25;;;8.76;80.86
75192;BME280;63771;52.580;9.734;2023-05-27T00:45:02;102603.88;;;8.71;81.17
75192;BME280;63771;52.580;9.734;2023-05-27T00:47:29;102608.63;;;8.68;81.10
75192;BME280;63771;52.580;9.734;2023-05-27T00:49:55;102602.06;;;8.63;81.23
75192;BME280;63771;52.580;9.734;2023-05-27T00:52:21;102600.97;;;8.61;80.97
75192;BME280;63771;52.580;9.734;2023-05-27T00:54:46;102591.88;;;8.56;81.22
75192;BME280;63771;52.580;9.734;2023-05-27T00:57:12;102595.13;;;8.55;81.19
75192;BME280;63771;52.580;9.734;2023-05-27T00:59:37;102592.41;;;8.53;81.58
75192;BME280;63771;52.580;9.734;2023-05-27T01:02:03;102593.31;;;8.54;81.56
75192;BME280;63771;52.580;9.734;2023-05-27T01:04:28;102598.41;;;8.54;81.51
75192;BME280;63771;52.580;9.734;2023-05-27T01:07:08;102589.69;;;8.52;81.07
75192;BME280;63771;52.580;9.734;2023-05-27T01:12:21;102590.78;;;8.54;80.93
75192;BME280;63771;52.580;9.734;2023-05-27T01:14:54;102589.31;;;8.49;81.00
75192;BME280;63771;52.580;9.734;2023-05-27T01:17:23;102591.31;;;8.44;81.58
75192;BME280;63771;52.580;9.734;2023-05-27T01:19:50;102596.94;;;8.42;81.29
75192;BME280;63771;52.580;9.734;2023-05-27T01:22:17;102592.94;;;8.36;81.13
75192;BME280;63771;52.580;9.734;2023-05-27T01:24:43;102586.41;;;8.39;80.91
75192;BME280;63771;52.580;9.734;2023-05-27T01:27:10;102600.91;;;8.40;81.27
75192;BME280;63771;52.580;9.734;2023-05-27T01:29:41;102595.66;;;8.38;81.35
75192;BME280;63771;52.580;9.734;2023-05-27T01:32:25;102596.94;;;8.42;81.66
75192;BME280;63771;52.580;9.734;2023-05-27T01:35:07;102587.78;;;8.29;82.11
75192;BME280;63771;52.580;9.734;2023-05-27T01:37:37;102589.41;;;8.29;81.53
75192;BME280;63771;52.580;9.734;2023-05-27T01:40:05;102586.69;;;8.27;81.87
75192;BME280;63771;52.580;9.734;2023-05-27T01:42:34;102578.00;;;8.25;82.10
75192;BME280;63771;52.580;9.734;2023-05-27T01:45:02;102586.53;;;8.26;81.90
75192;BME280;63771;52.580;9.734;2023-05-27T01:47:30;102579.25;;;8.29;81.75
75192;BME280;63771;52.580;9.734;2023-05-27T01:49:55;102577.44;;;8.28;82.25
75192;BME280;63771;52.580;9.734;2023-05-27T01:52:21;102570.38;;;8.32;81.19
75192;BME280;63771;52.580;9.734;2023-05-27T01:54:46;102568.72;;;8.33;80.76
75192;BME280;63771;52.580;9.734;2023-05-27T01:57:11;102565.28;;;8.32;80.97
75192;BME280;63771;52.580;9.734;2023-05-27T01:59:37;102561.28;;;8.27;81.27
75192;BME280;63771;52.580;9.734;2023-05-27T02:02:02;102560.19;;;8.25;81.03
75192;BME280;63771;52.580;9.734;2023-05-27T02:04:27;102555.81;;;8.24;81.70
75192;BME280;63771;52.580;9.734;2023-05-27T02:06:53;102560.53;;;8.21;81.68
75192;BME280;63771;52.580;9.734;2023-05-27T02:09:18;102556.72;;;8.18;82.35
75192;BME280;63771;52.580;9.734;2023-05-27T02:11:43;102558.72;;;8.20;80.73
75192;BME280;63771;52.580;9.734;2023-05-27T02:14:09;102562.91;;;8.20;81.09
75192;BME280;63771;52.580;9.734;2023-05-27T02:16:34;102566.34;;;8.20;80.49
75192;BME280;63771;52.580;9.734;2023-05-27T02:19:00;102567.78;;;8.11;81.62
75192;BME280;63771;52.580;9.734;2023-05-27T02:21:26;102571.22;;;8.19;80.08
75192;BME280;63771;52.580;9.734;2023-05-27T02:23:52;102570.88;;;8.16;80.26
75192;BME280;63771;52.580;9.734;2023-05-27T02:26:17;102569.41;;;8.10;80.25
75192;BME280;63771;52.580;9.734;2023-05-27T02:28:42;102578.84;;;8.04;81.47
75192;BME280;63771;52.580;9.734;2023-05-27T02:31:08;102575.41;;;8.04;80.02
75192;BME280;63771;52.580;9.734;2023-05-27T02:33:33;102580.81;;;8.00;80.61
75192;BME280;63771;52.580;9.734;2023-05-27T02:35:59;102583.16;;;7.98;80.62
75192;BME280;63771;52.580;9.734;2023-05-27T02:38:24;102582.22;;;7.91;80.90
75192;BME280;63771;52.580;9.734;2023-05-27T02:40:50;102585.16;;;7.94;80.11
75192;BME280;63771;52.580;9.734;2023-05-27T02:43:16;102590.59;;;7.90;80.22
75192;BME280;63771;52.580;9.734;2023-05-27T02:45:41;102591.66;;;7.84;81.12
75192;BME280;63771;52.580;9.734;2023-05-27T02:48:07;102583.63;;;7.74;82.08
75192;BME280;63771;52.580;9.734;2023-05-27T02:50:32;102598.47;;;7.71;81.61
75192;BME280;63771;52.580;9.734;2023-05-27T02:52:58;102605.16;;;7.64;81.70
75192;BME280;63771;52.580;9.734;2023-05-27T02:55:23;102587.38;;;7.64;81.27
75192;BME280;63771;52.580;9.734;2023-05-27T02:57:49;102596.81;;;7.65;80.93
75192;BME280;63771;52.580;9.734;2023-05-27T03:00:14;102590.50;;;7.68;80.31
75192;BME280;63771;52.580;9.734;2023-05-27T03:02:40;102598.44;;;7.64;81.21
75192;BME280;63771;52.580;9.734;2023-05-27T03:05:05;102593.69;;;7.60;81.94
75192;BME280;63771;52.580;9.734;2023-05-27T03:07:31;102588.25;;;7.57;81.23
75192;BME280;63771;52.580;9.734;2023-05-27T03:09:56;102577.72;;;7.61;80.50
75192;BME280;63771;52.580;9.734;2023-05-27T03:12:22;102577.78;;;7.68;79.71
75192;BME280;63771;52.580;9.734;2023-05-27T03:14:48;102577.41;;;7.65;79.84
75192;BME280;63771;52.580;9.734;2023-05-27T03:17:14;102571.94;;;7.62;80.44
75192;BME280;63771;52.580;9.734;2023-05-27T03:19:39;102576.31;;;7.63;80.09
75192;BME280;63771;52.580;9.734;2023-05-27T03:22:05;102585.91;;;7.58;80.68
75192;BME280;63771;52.580;9.734;2023-05-27T03:24:32;102579.19;;;7.59;80.15
75192;BME280;63771;52.580;9.734;2023-05-27T03:26:58;102573.03;;;7.57;80.60
75192;BME280;63771;52.580;9.734;2023-05-27T03:29:24;102565.25;;;7.63;80.11
75192;BME280;63771;52.580;9.734;2023-05-27T03:31:49;102578.63;;;7.62;80.09
75192;BME280;63771;52.580;9.734;2023-05-27T03:34:15;102571.81;;;7.68;79.38
75192;BME280;63771;52.580;9.734;2023-05-27T03:36:40;102567.97;;;7.64;80.08
75192;BME280;63771;52.580;9.734;2023-05-27T03:39:08;102569.75;;;7.58;81.22
75192;BME280;63771;52.580;9.734;2023-05-27T03:41:33;102568.53;;;7.69;79.57
75192;BME280;63771;52.580;9.734;2023-05-27T03:43:58;102564.31;;;7.62;80.19
75192;BME280;63771;52.580;9.734;2023-05-27T03:46:23;102567.41;;;7.59;80.55
75192;BME280;63771;52.580;9.734;2023-05-27T03:48:49;102573.56;;;7.62;80.53
75192;BME280;63771;52.580;9.734;2023-05-27T03:51:14;102569.38;;;7.55;81.81
75192;BME280;63771;52.580;9.734;2023-05-27T03:53:40;102568.28;;;7.53;82.20
75192;BME280;63771;52.580;9.734;2023-05-27T03:56:05;102565.34;;;7.50;82.58
75192;BME280;63771;52.580;9.734;2023-05-27T03:58:31;102565.91;;;7.54;81.39
75192;BME280;63771;52.580;9.734;2023-05-27T04:00:56;102560.69;;;7.60;81.37
75192;BME280;63771;52.580;9.734;2023-05-27T04:03:21;102563.41;;;7.62;80.75
75192;BME280;63771;52.580;9.734;2023-05-27T04:05:47;102562.72;;;7.70;80.21
75192;BME280;63771;52.580;9.734;2023-05-27T04:08:12;102569.78;;;7.72;80.21
75192;BME280;63771;52.580;9.734;2023-05-27T04:10:38;102556.19;;;7.72;80.33
75192;BME280;63771;52.580;9.734;2023-05-27T04:13:03;102568.19;;;7.73;80.95
75192;BME280;63771;52.580;9.734;2023-05-27T04:15:29;102577.09;;;7.76;80.46
75192;BME280;63771;52.580;9.734;2023-05-27T04:17:54;102568.38;;;7.74;80.69
75192;BME280;63771;52.580;9.734;2023-05-27T04:20:19;102572.72;;;7.68;81.48
75192;BME280;63771;52.580;9.734;2023-05-27T04:22:45;102565.59;;;7.66;81.38
75192;BME280;63771;52.580;9.734;2023-05-27T04:25:10;102574.34;;;7.68;81.68
75192;BME280;63771;52.580;9.734;2023-05-27T04:27:36;102578.47;;;7.60;83.71
75192;BME280;63771;52.580;9.734;2023-05-27T04:30:03;102567.41;;;7.59;83.40
75192;BME280;63771;52.580;9.734;2023-05-27T04:32:28;102565.94;;;7.62;83.03
75192;BME280;63771;52.580;9.734;2023-05-27T04:34:58;102563.97;;;7.66;82.49
75192;BME280;63771;52.580;9.734;2023-05-27T04:37:23;102567.25;;;7.65;83.32
75192;BME280;63771;52.580;9.734;2023-05-27T04:39:49;102561.75;;;7.62;84.09
75192;BME280;63771;52.580;9.734;2023-05-27T04:42:14;102577.00;;;7.62;84.69
75192;BME280;63771;52.580;9.734;2023-05-27T04:44:40;102576.31;;;7.63;84.39
75192;BME280;63771;52.580;9.734;2023-05-27T04:47:06;102574.13;;;7.66;85.00
75192;BME280;63771;52.580;9.734;2023-05-27T04:49:31;102572.13;;;7.64;85.94
75192;BME280;63771;52.580;9.734;2023-05-27T04:51:57;102588.09;;;7.63;86.02
75192;BME280;63771;52.580;9.734;2023-05-27T04:54:23;102581.19;;;7.62;86.12
75192;BME280;63771;52.580;9.734;2023-05-27T04:56:48;102575.59;;;7.64;85.98
75192;BME280;63771;52.580;9.734;2023-05-27T04:59:17;102571.97;;;7.69;85.92
75192;BME280;63771;52.580;9.734;2023-05-27T05:01:45;102563.66;;;7.77;84.71
75192;BME280;63771;52.580;9.734;2023-05-27T05:04:28;102568.78;;;7.84;85.37
75192;BME280;63771;52.580;9.734;2023-05-27T05:06:54;102570.59;;;7.85;86.11
75192;BME280;63771;52.580;9.734;2023-05-27T05:09:21;102571.69;;;7.88;86.58
75192;BME280;63771;52.580;9.734;2023-05-27T05:11:46;102577.66;;;7.88;86.70
75192;BME280;63771;52.580;9.734;2023-05-27T05:14:11;102571.88;;;7.89;86.61
75192;BME280;63771;52.580;9.734;2023-05-27T05:16:37;102564.84;;;7.94;86.06
75192;BME280;63771;52.580;9.734;2023-05-27T05:19:02;102572.47;;;8.01;85.62
75192;BME280;63771;52.580;9.734;2023-05-27T05:21:27;102574.44;;;8.03;86.58
75192;BME280;63771;52.580;9.734;2023-05-27T05:23:53;102567.38;;;8.08;86.70
75192;BME280;63771;52.580;9.734;2023-05-27T05:26:18;102573.59;;;8.10;87.13
75192;BME280;63771;52.580;9.734;2023-05-27T05:28:43;102572.53;;;8.15;86.71
75192;BME280;63771;52.580;9.734;2023-05-27T05:31:09;102570.72;;;8.21;86.60
75192;BME280;63771;52.580;9.734;2023-05-27T05:33:34;102565.63;;;8.28;85.75
75192;BME280;63771;52.580;9.734;2023-05-27T05:36:01;102564.56;;;8.33;85.68
75192;BME280;63771;52.580;9.734;2023-05-27T05:38:26;102562.06;;;8.41;85.67
75192;BME280;63771;52.580;9.734;2023-05-27T05:40:52;102563.16;;;8.50;85.30
75192;BME280;63771;52.580;9.734;2023-05-27T05:43:19;102569.34;;;8.59;85.10
75192;BME280;63771;52.580;9.734;2023-05-27T05:45:45;102570.81;;;8.64;85.77
75192;BME280;63771;52.580;9.734;2023-05-27T05:48:10;102570.09;;;8.72;85.22
75192;BME280;63771;52.580;9.734;2023-05-27T05:50:36;102563.34;;;8.80;85.13
75192;BME280;63771;52.580;9.734;2023-05-27T05:53:01;102569.00;;;8.84;86.16
75192;BME280;63771;52.580;9.734;2023-05-27T05:55:26;102560.28;;;8.89;85.47
75192;BME280;63771;52.580;9.734;2023-05-27T05:57:52;102562.78;;;8.97;85.01
75192;BME280;63771;52.580;9.734;2023-05-27T06:00:17;102565.16;;;9.02;84.06
75192;BME280;63771;52.580;9.734;2023-05-27T06:02:43;102563.34;;;9.08;83.52
75192;BME280;63771;52.580;9.734;2023-05-27T06:05:09;102562.44;;;9.15;84.28
75192;BME280;63771;52.580;9.734;2023-05-27T06:07:34;102560.75;;;9.23;84.49
75192;BME280;63771;52.580;9.734;2023-05-27T06:09:59;102560.56;;;9.28;84.13
75192;BME280;63771;52.580;9.734;2023-05-27T06:12:24;102566.03;;;9.31;85.01
75192;BME280;63771;52.580;9.734;2023-05-27T06:14:50;102564.19;;;9.37;85.54
75192;BME280;63771;52.580;9.734;2023-05-27T06:17:15;102564.56;;;9.40;85.40
75192;BME280;63771;52.580;9.734;2023-05-27T06:19:40;102573.66;;;9.46;85.40
75192;BME280;63771;52.580;9.734;2023-05-27T06:22:06;102565.44;;;9.48;86.05
75192;BME280;63771;52.580;9.734;2023-05-27T06:24:32;102567.78;;;9.54;85.30
75192;BME280;63771;52.580;9.734;2023-05-27T06:26:57;102574.69;;;9.62;84.35
75192;BME280;63771;52.580;9.734;2023-05-27T06:29:23;102565.19;;;9.68;84.49
75192;BME280;63771;52.580;9.734;2023-05-27T06:31:48;102563.34;;;9.74;85.24
75192;BME280;63771;52.580;9.734;2023-05-27T06:34:15;102564.03;;;9.80;85.57
75192;BME280;63771;52.580;9.734;2023-05-27T06:36:41;102562.19;;;9.86;85.69
75192;BME280;63771;52.580;9.734;2023-05-27T06:39:06;102557.97;;;9.94;84.93
75192;BME280;63771;52.580;9.734;2023-05-27T06:41:31;102550.13;;;10.00;84.62
75192;BME280;63771;52.580;9.734;2023-05-27T06:43:56;102559.94;;;10.04;84.44
75192;BME280;63771;52.580;9.734;2023-05-27T06:46:22;102547.88;;;10.10;84.32
75192;BME280;63771;52.580;9.734;2023-05-27T06:48:47;102547.81;;;10.17;84.63
75192;BME280;63771;52.580;9.734;2023-05-27T06:51:14;102557.81;;;10.23;84.54
75192;BME280;63771;52.580;9.734;2023-05-27T06:53:39;102556.31;;;10.32;84.11
75192;BME280;63771;52.580;9.734;2023-05-27T06:56:05;102548.81;;;10.40;84.42
75192;BME280;63771;52.580;9.734;2023-05-27T06:58:30;102553.84;;;10.48;84.04
75192;BME280;63771;52.580;9.734;2023-05-27T07:00:56;102546.47;;;10.58;83.77
75192;BME280;63771;52.580;9.734;2023-05-27T07:03:21;102545.34;;;10.63;83.24
75192;BME280;63771;52.580;9.734;2023-05-27T07:05:46;102539.28;;;10.69;83.60
75192;BME280;63771;52.580;9.734;2023-05-27T07:08:12;102546.31;;;10.79;83.87
75192;BME280;63771;52.580;9.734;2023-05-27T07:10:37;102543.72;;;10.86;83.20
75192;BME280;63771;52.580;9.734;2023-05-27T07:13:03;102531.22;;;10.96;82.68
75192;BME280;63771;52.580;9.734;2023-05-27T07:15:28;102535.34;;;11.03;82.77
75192;BME280;63771;52.580;9.734;2023-05-27T07:17:54;102529.22;;;11.10;82.12
75192;BME280;63771;52.580;9.734;2023-05-27T07:20:19;102520.94;;;11.19;81.69
75192;BME280;63771;52.580;9.734;2023-05-27T07:22:44;102529.41;;;11.27;81.35
75192;BME280;63771;52.580;9.734;2023-05-27T07:25:10;102531.91;;;11.34;81.67
75192;BME280;63771;52.580;9.734;2023-05-27T07:27:35;102524.78;;;11.47;80.46
75192;BME280;63771;52.580;9.734;2023-05-27T07:30:01;102526.38;;;11.54;80.12
75192;BME280;63771;52.580;9.734;2023-05-27T07:32:27;102524.63;;;11.62;80.38
75192;BME280;63771;52.580;9.734;2023-05-27T07:34:53;102510.84;;;11.68;79.14
75192;BME280;63771;52.580;9.734;2023-05-27T07:37:18;102503.00;;;11.67;79.14
75192;BME280;63771;52.580;9.734;2023-05-27T07:39:44;102508.88;;;11.82;79.11
75192;BME280;63771;52.580;9.734;2023-05-27T07:42:09;102513.75;;;11.87;79.57
75192;BME280;63771;52.580;9.734;2023-05-27T07:44:34;102510.50;;;11.97;79.30
75192;BME280;63771;52.580;9.734;2023-05-27T07:47:00;102503.63;;;12.05;78.53
75192;BME280;63771;52.580;9.734;2023-05-27T07:49:25;102500.22;;;12.13;78.23
75192;BME280;63771;52.580;9.734;2023-05-27T07:51:51;102498.28;;;12.19;76.57
75192;BME280;63771;52.580;9.734;2023-05-27T07:54:16;102493.06;;;12.26;77.06
75192;BME280;63771;52.580;9.734;2023-05-27T07:56:42;102494.75;;;12.34;77.11
75192;BME280;63771;52.580;9.734;2023-05-27T07:59:07;102493.16;;;12.43;76.55
75192;BME280;63771;52.580;9.734;2023-05-27T08:01:32;102486.69;;;12.47;75.84
75192;BME280;63771;52.580;9.734;2023-05-27T08:04:00;102485.97;;;12.57;74.81
75192;BME280;63771;52.580;9.734;2023-05-27T08:06:26;102484.78;;;12.62;74.71
75192;BME280;63771;52.580;9.734;2023-05-27T08:08:51;102490.53;;;12.68;74.65
75192;BME280;63771;52.580;9.734;2023-05-27T08:11:17;102478.19;;;12.72;74.17
75192;BME280;63771;52.580;9.734;2023-05-27T08:13:42;102488.91;;;12.77;73.16
75192;BME280;63771;52.580;9.734;2023-05-27T08:16:07;102470.53;;;12.81;73.69
75192;BME280;63771;52.580;9.734;2023-05-27T08:18:35;102472.69;;;12.85;73.75
75192;BME280;63771;52.580;9.734;2023-05-27T08:21:00;102471.16;;;12.87;72.52
75192;BME280;63771;52.580;9.734;2023-05-27T08:23:25;102464.53;;;12.89;70.03
75192;BME280;63771;52.580;9.734;2023-05-27T08:25:51;102457.16;;;12.92;70.52
75192;BME280;63771;52.580;9.734;2023-05-27T08:28:16;102473.13;;;12.98;71.86
75192;BME280;63771;52.580;9.734;2023-05-27T08:30:42;102462.44;;;13.02;69.22
75192;BME280;63771;52.580;9.734;2023-05-27T08:33:07;102461.41;;;13.09;68.88
75192;BME280;63771;52.580;9.734;2023-05-27T08:35:33;102454.94;;;13.13;69.60
75192;BME280;63771;52.580;9.734;2023-05-27T08:37:58;102448.19;;;13.22;70.25
75192;BME280;63771;52.580;9.734;2023-05-27T08:40:23;102442.44;;;13.50;66.06
75192;BME280;63771;52.580;9.734;2023-05-27T08:42:49;102450.47;;;13.53;66.26
75192;BME280;63771;52.580;9.734;2023-05-27T08:45:14;102446.38;;;13.55;67.50
75192;BME280;63771;52.580;9.734;2023-05-27T08:47:40;102443.34;;;13.60;66.93
75192;BME280;63771;52.580;9.734;2023-05-27T08:50:07;102441.09;;;13.63;67.23
75192;BME280;63771;52.580;9.734;2023-05-27T08:52:33;102438.97;;;13.67;68.52
75192;BME280;63771;52.580;9.734;2023-05-27T08:55:03;102438.94;;;13.76;69.65
75192;BME280;63771;52.580;9.734;2023-05-27T08:57:32;102436.53;;;13.86;69.14
75192;BME280;63771;52.580;9.734;2023-05-27T08:59:58;102430.47;;;13.94;68.14
75192;BME280;63771;52.580;9.734;2023-05-27T09:02:24;102432.84;;;14.01;68.08
75192;BME280;63771;52.580;9.734;2023-05-27T09:04:49;102438.72;;;14.09;67.08
75192;BME280;63771;52.580;9.734;2023-05-27T09:07:15;102425.84;;;14.18;66.22
75192;BME280;63771;52.580;9.734;2023-05-27T09:09:40;102434.44;;;14.27;65.57
75192;BME280;63771;52.580;9.734;2023-05-27T09:12:06;102417.50;;;14.29;64.05
75192;BME280;63771;52.580;9.734;2023-05-27T09:14:34;102425.31;;;14.39;61.56
75192;BME280;63771;52.580;9.734;2023-05-27T09:17:06;102425.75;;;14.52;59.91
75192;BME280;63771;52.580;9.734;2023-05-27T09:19:32;102416.97;;;14.50;62.55
75192;BME280;63771;52.580;9.734;2023-05-27T09:21:58;102412.13;;;14.53;61.48
75192;BME280;63771;52.580;9.734;2023-05-27T09:24:24;102419.97;;;14.55;62.89
75192;BME280;63771;52.580;9.734;2023-05-27T09:26:53;102410.56;;;14.64;62.14
75192;BME280;63771;52.580;9.734;2023-05-27T09:29:19;102417.16;;;14.71;61.23
75192;BME280;63771;52.580;9.734;2023-05-27T09:31:45;102409.00;;;14.75;61.89
75192;BME280;63771;52.580;9.734;2023-05-27T09:34:15;102410.88;;;14.86;60.27
75192;BME280;63771;52.580;9.734;2023-05-27T09:36:48;102414.28;;;14.95;58.96
75192;BME280;63771;52.580;9.734;2023-05-27T09:39:15;102402.22;;;14.94;59.16
75192;BME280;63771;52.580;9.734;2023-05-27T09:41:41;102398.56;;;14.92;61.27
75192;BME280;63771;52.580;9.734;2023-05-27T09:44:08;102402.75;;;15.00;61.96
75192;BME280;63771;52.580;9.734;2023-05-27T09:46:33;102397.28;;;15.06;62.32
75192;BME280;63771;52.580;9.734;2023-05-27T09:48:59;102396.16;;;15.12;60.30
75192;BME280;63771;52.580;9.734;2023-05-27T09:51:28;102389.91;;;15.19;60.51
75192;BME280;63771;52.580;9.734;2023-05-27T09:53:54;102391.22;;;15.24;60.36
75192;BME280;63771;52.580;9.734;2023-05-27T09:56:27;102378.28;;;15.33;61.89
75192;BME280;63771;52.580;9.734;2023-05-27T09:58:57;102381.41;;;15.39;60.93
75192;BME280;63771;52.580;9.734;2023-05-27T10:01:26;102373.19;;;15.43;57.66
75192;BME280;63771;52.580;9.734;2023-05-27T10:03:53;102382.72;;;15.44;59.32
75192;BME280;63771;52.580;9.734;2023-05-27T10:06:20;102378.47;;;15.45;59.65
75192;BME280;63771;52.580;9.734;2023-05-27T10:08:45;102380.84;;;15.52;58.37
75192;BME280;63771;52.580;9.734;2023-05-27T10:11:11;102373.53;;;15.56;58.05
75192;BME280;63771;52.580;9.734;2023-05-27T10:13:37;102383.38;;;15.71;57.67
75192;BME280;63771;52.580;9.734;2023-05-27T10:16:03;102370.00;;;15.75;56.38
75192;BME280;63771;52.580;9.734;2023-05-27T10:18:29;102359.72;;;15.75;57.87
75192;BME280;63771;52.580;9.734;2023-05-27T10:20:57;102367.22;;;15.82;59.02
75192;BME280;63771;52.580;9.734;2023-05-27T10:23:30;102358.97;;;15.86;57.71
75192;BME280;63771;52.580;9.734;2023-05-27T10:26:05;102358.00;;;15.94;59.87
75192;BME280;63771;52.580;9.734;2023-05-27T10:28:38;102350.00;;;16.01;56.46
75192;BME280;63771;52.580;9.734;2023-05-27T10:31:11;102352.09;;;16.05;56.77
75192;BME280;63771;52.580;9.734;2023-05-27T10:33:43;102349.78;;;16.08;53.83
75192;BME280;63771;52.580;9.734;2023-05-27T10:36:11;102342.06;;;16.08;55.19
75192;BME280;63771;52.580;9.734;2023-05-27T10:38:37;102344.09;;;16.12;57.28
75192;BME280;63771;52.580;9.734;2023-05-27T10:41:05;102340.25;;;16.17;57.88
75192;BME280;63771;52.580;9.734;2023-05-27T10:43:31;102338.22;;;16.24;58.61
75192;BME280;63771;52.580;9.734;2023-05-27T10:46:06;102328.06;;;16.35;57.50
75192;BME280;63771;52.580;9.734;2023-05-27T10:48:32;102322.13;;;16.47;57.70
75192;BME280;63771;52.580;9.734;2023-05-27T10:51:00;102323.53;;;16.53;57.39
75192;BME280;63771;52.580;9.734;2023-05-27T10:53:27;102317.84;;;16.67;57.17
75192;BME280;63771;52.580;9.734;2023-05-27T10:55:53;102320.97;;;16.84;51.75
75192;BME280;63771;52.580;9.734;2023-05-27T10:58:19;102314.91;;;16.83;51.10
75192;BME280;63771;52.580;9.734;2023-05-27T11:00:49;102312.97;;;16.81;53.23
75192;BME280;63771;52.580;9.734;2023-05-27T11:03:23;102312.44;;;16.85;55.09
75192;BME280;63771;52.580;9.734;2023-05-27T11:06:02;102307.78;;;16.91;56.39
75192;BME280;63771;52.580;9.734;2023-05-27T11:08:31;102301.47;;;16.98;55.40
75192;BME280;63771;52.580;9.734;2023-05-27T11:11:08;102301.94;;;17.14;55.04
75192;BME280;63771;52.580;9.734;2023-05-27T11:13:35;102295.84;;;17.24;54.34
75192;BME280;63771;52.580;9.734;2023-05-27T11:16:04;102292.44;;;17.35;53.60
75192;BME280;63771;52.580;9.734;2023-05-27T11:18:48;102293.03;;;17.42;53.39
75192;BME280;63771;52.580;9.734;2023-05-27T11:21:15;102283.06;;;17.47;51.92
75192;BME280;63771;52.580;9.734;2023-05-27T11:23:50;102274.13;;;17.54;52.29
75192;BME280;63771;52.580;9.734;2023-05-27T11:26:20;102277.56;;;17.64;53.24
75192;BME280;63771;52.580;9.734;2023-05-27T11:31:12;102280.13;;;17.74;52.17
75192;BME280;63771;52.580;9.734;2023-05-27T11:33:40;102269.78;;;17.74;49.86
75192;BME280;63771;52.580;9.734;2023-05-27T11:36:07;102260.75;;;17.69;50.99
75192;BME280;63771;52.580;9.734;2023-05-27T11:38:52;102264.38;;;17.71;51.27
75192;BME280;63771;52.580;9.734;2023-05-27T11:41:19;102264.63;;;17.74;52.11
75192;BME280;63771;52.580;9.734;2023-05-27T11:43:55;102260.72;;;17.80;50.08
75192;BME280;63771;52.580;9.734;2023-05-27T11:46:21;102260.72;;;17.80;50.94
75192;BME280;63771;52.580;9.734;2023-05-27T11:48:48;102259.16;;;17.82;51.42
75192;BME280;63771;52.580;9.734;2023-05-27T11:51:14;102260.53;;;17.88;51.88
75192;BME280;63771;52.580;9.734;2023-05-27T11:53:46;102255.84;;;17.94;51.00
75192;BME280;63771;52.580;9.734;2023-05-27T11:56:12;102249.22;;;17.98;50.63
75192;BME280;63771;52.580;9.734;2023-05-27T11:58:38;102247.66;;;18.00;50.65
75192;BME280;63771;52.580;9.734;2023-05-27T12:01:04;102234.44;;;18.07;50.99
75192;BME280;63771;52.580;9.734;2023-05-27T12:03:30;102231.53;;;18.14;51.88
75192;BME280;63771;52.580;9.734;2023-05-27T12:05:56;102225.81;;;18.18;50.72
75192;BME280;63771;52.580;9.734;2023-05-27T12:08:21;102223.44;;;18.21;50.64
75192;BME280;63771;52.580;9.734;2023-05-27T12:10:48;102221.22;;;18.26;49.77
75192;BME280;63771;52.580;9.734;2023-05-27T12:13:15;102222.25;;;18.28;51.15
75192;BME280;63771;52.580;9.734;2023-05-27T12:15:40;102221.91;;;18.35;50.24
75192;BME280;63771;52.580;9.734;2023-05-27T12:18:06;102216.28;;;18.41;51.49
75192;BME280;63771;52.580;9.734;2023-05-27T12:20:31;102210.13;;;18.50;51.85
75192;BME280;63771;52.580;9.734;2023-05-27T12:22:56;102203.06;;;18.60;50.98
75192;BME280;63771;52.580;9.734;2023-05-27T12:25:22;102201.19;;;18.69;49.06
75192;BME280;63771;52.580;9.734;2023-05-27T12:27:47;102196.13;;;18.70;49.12
75192;BME280;63771;52.580;9.734;2023-05-27T12:30:12;102200.03;;;18.77;49.31
75192;BME280;63771;52.580;9.734;2023-05-27T12:32:38;102192.50;;;18.80;48.23
75192;BME280;63771;52.580;9.734;2023-05-27T12:35:04;102190.03;;;18.82;46.07
75192;BME280;63771;52.580;9.734;2023-05-27T12:37:30;102191.72;;;18.81;46.87
75192;BME280;63771;52.580;9.734;2023-05-27T12:39:55;102189.34;;;18.84;47.78
75192;BME280;63771;52.580;9.734;2023-05-27T12:42:20;102176.75;;;18.89;44.42
75192;BME280;63771;52.580;9.734;2023-05-27T12:44:46;102174.38;;;18.92;43.12
75192;BME280;63771;52.580;9.734;2023-05-27T12:47:11;102173.16;;;18.87;45.17
75192;BME280;63771;52.580;9.734;2023-05-27T12:49:37;102164.69;;;18.89;47.21
75192;BME280;63771;52.580;9.734;2023-05-27T12:52:02;102162.25;;;18.91;48.00
75192;BME280;63771;52.580;9.734;2023-05-27T12:54:28;102158.16;;;18.94;48.17
75192;BME280;63771;52.580;9.734;2023-05-27T12:56:54;102144.91;;;19.01;44.50